Time;durP1;ratioP1;P1;durP2;ratioP2;P2;SDS_P1;SDS_P2;PMS_P1;PMS_P2;Temp;Humidity;BMP_temperature;BMP_pressure;BME280_temperature;BME280_humidity;BME280_pressure;Samples;Min_cycle;Max_cycle;Signal;HPM_P1;HPM_P2
2022/09/29 00:00:06;;;;;;;4.15;2.50;;;;;;;;;;5055226;28;20029;-23
2022/09/29 00:02:32;;;;;;;7.70;1.70;;;;;;;;;;5055151;28;20437;-30
2022/09/29 00:04:58;;;;;;;4.70;1.40;;;;;;;;;;5054643;28;20044;-26
2022/09/29 00:07:24;;;;;;;3.78;1.48;;;;;;;;;;5054330;28;20037;-24
2022/09/29 00:09:50;;;;;;;10.07;2.70;;;;;;;;;;5054584;28;20102;-25
2022/09/29 00:12:16;;;;;;;4.65;1.98;;;;;;;;;;5054362;28;20055;-24
2022/09/29 00:14:43;;;;;;;3.28;1.65;;;;;;;;;;5054200;28;20447;-24
2022/09/29 00:17:09;;;;;;;4.10;1.50;;;;;;;;;;5054207;28;20474;-26
2022/09/29 00:19:35;;;;;;;9.65;2.08;;;;;;;;;;5054416;28;20028;-27
2022/09/29 00:22:01;;;;;;;5.10;1.38;;;;;;;;;;5054046;28;20049;-28
2022/09/29 00:24:28;;;;;;;5.70;1.85;;;;;;;;;;5054360;28;20394;-27
2022/09/29 00:26:54;;;;;;;5.75;1.58;;;;;;;;;;5054059;28;20033;-25
2022/09/29 00:29:20;;;;;;;6.22;1.48;;;;;;;;;;5053950;28;20021;-24
2022/09/29 00:31:46;;;;;;;6.90;1.27;;;;;;;;;;5053812;28;20108;-24
2022/09/29 00:34:13;;;;;;;5.07;1.50;;;;;;;;;;5053948;28;20024;-25
2022/09/29 00:36:40;;;;;;;7.28;1.63;;;;;;;;;;5036783;28;20021;-24
2022/09/29 00:39:06;;;;;;;7.18;2.53;;;;;;;;;;5054103;28;20031;-26
2022/09/29 00:41:33;;;;;;;3.92;1.48;;;;;;;;;;5036305;28;20067;-26
2022/09/29 00:44:00;;;;;;;3.72;1.38;;;;;;;;;;5036155;28;20040;-25
2022/09/29 00:46:29;;;;;;;7.55;2.67;;;;;;;;;;5053748;28;20112;-24
2022/09/29 00:48:56;;;;;;;8.80;2.72;;;;;;;;;;5053662;28;20473;-25
2022/09/29 00:51:24;;;;;;;7.03;1.77;;;;;;;;;;5036185;28;20029;-28
2022/09/29 00:53:50;;;;;;;4.57;1.48;;;;;;;;;;5053542;28;20025;-24
2022/09/29 00:56:17;;;;;;;6.70;2.00;;;;;;;;;;5053887;28;20025;-27
2022/09/29 00:58:53;;;;;;;5.32;1.50;;;;;;;;;;5053858;28;20029;-24
2022/09/29 01:01:19;;;;;;;5.97;1.35;;;;;;;;;;5053583;28;20108;-25
2022/09/29 01:03:46;;;;;;;5.70;1.45;;;;;;;;;;5009386;28;1276859;-26
2022/09/29 01:06:21;;;;;;;8.48;1.58;;;;;;;;;;5054355;28;20068;-26
2022/09/29 01:09:00;;;;;;;2.90;1.63;;;;;;;;;;5054665;28;20021;-25
2022/09/29 01:11:27;;;;;;;12.40;2.35;;;;;;;;;;5057400;28;20116;-24
2022/09/29 01:13:57;;;;;;;7.13;1.73;;;;;;;;;;5058267;28;20047;-27
2022/09/29 01:16:23;;;;;;;4.57;1.63;;;;;;;;;;5058584;28;20060;-24
2022/09/29 01:18:51;;;;;;;3.72;1.63;;;;;;;;;;5058313;28;20032;-23
2022/09/29 01:21:17;;;;;;;5.18;2.90;;;;;;;;;;5058247;28;20103;-24
2022/09/29 01:23:46;;;;;;;5.70;1.80;;;;;;;;;;5058179;28;20032;-24
2022/09/29 01:26:21;;;;;;;4.30;1.38;;;;;;;;;;5058154;28;20033;-24
2022/09/29 01:28:50;;;;;;;4.75;1.42;;;;;;;;;;5058373;28;20083;-25
2022/09/29 01:31:23;;;;;;;5.35;1.45;;;;;;;;;;5058331;28;20037;-26
2022/09/29 01:33:58;;;;;;;7.63;1.38;;;;;;;;;;5040370;28;20415;-26
2022/09/29 01:36:27;;;;;;;3.60;1.30;;;;;;;;;;5057982;28;20512;-27
2022/09/29 01:38:58;;;;;;;5.25;2.38;;;;;;;;;;5058209;28;20028;-27
2022/09/29 01:41:45;;;;;;;6.35;1.35;;;;;;;;;;5057944;28;20041;-26
2022/09/29 01:44:28;;;;;;;9.32;1.30;;;;;;;;;;5057973;28;20032;-25
2022/09/29 01:46:57;;;;;;;8.48;1.48;;;;;;;;;;5058049;28;20032;-27
2022/09/29 01:49:26;;;;;;;3.65;2.03;;;;;;;;;;5057710;28;20108;-26
2022/09/29 01:51:54;;;;;;;5.22;1.50;;;;;;;;;;5057547;28;20036;-26
2022/09/29 01:54:24;;;;;;;3.63;1.45;;;;;;;;;;5057671;28;20029;-24
2022/09/29 01:56:58;;;;;;;4.32;1.40;;;;;;;;;;5057636;28;20021;-25
2022/09/29 01:59:37;;;;;;;5.80;1.75;;;;;;;;;;5057829;28;20135;-24
2022/09/29 02:02:07;;;;;;;4.88;1.60;;;;;;;;;;5057800;28;20025;-26
2022/09/29 02:04:36;;;;;;;3.58;1.45;;;;;;;;;;5057298;28;20128;-24
2022/09/29 02:07:06;;;;;;;3.20;1.40;;;;;;;;;;5057690;28;20036;-25
2022/09/29 02:09:35;;;;;;;5.40;1.42;;;;;;;;;;5057391;28;20361;-24
2022/09/29 02:12:03;;;;;;;4.47;1.50;;;;;;;;;;5040052;28;20045;-26
2022/09/29 02:14:33;;;;;;;3.65;1.40;;;;;;;;;;5057299;28;20024;-25
2022/09/29 02:17:07;;;;;;;3.75;1.00;;;;;;;;;;5057527;28;20021;-25
2022/09/29 02:19:36;;;;;;;2.90;1.20;;;;;;;;;;5057459;28;20398;-24
2022/09/29 02:22:02;;;;;;;2.33;1.10;;;;;;;;;;5056669;28;20076;-24
2022/09/29 02:24:28;;;;;;;10.43;1.92;;;;;;;;;;5039510;28;20075;-24
2022/09/29 02:26:55;;;;;;;2.15;1.05;;;;;;;;;;5039536;28;20124;-25
2022/09/29 02:29:21;;;;;;;3.63;1.20;;;;;;;;;;5057525;28;20067;-24
2022/09/29 02:31:48;;;;;;;2.78;1.58;;;;;;;;;;5057082;28;20036;-25
2022/09/29 02:34:16;;;;;;;2.58;1.02;;;;;;;;;;5056903;28;20025;-25
2022/09/29 02:37:02;;;;;;;3.35;1.10;;;;;;;;;;5057113;28;20021;-24
2022/09/29 02:39:44;;;;;;;4.85;1.48;;;;;;;;;;5057122;28;20415;-24
2022/09/29 02:42:10;;;;;;;4.00;1.10;;;;;;;;;;5057003;28;20116;-31
2022/09/29 02:44:54;;;;;;;5.28;1.42;;;;;;;;;;5056711;28;20029;-34
2022/09/29 02:47:31;;;;;;;3.10;1.50;;;;;;;;;;5056668;28;20033;-24
2022/09/29 02:50:17;;;;;;;2.50;1.10;;;;;;;;;;5056834;28;20036;-24
2022/09/29 02:53:03;;;;;;;6.22;1.15;;;;;;;;;;5056715;28;20414;-25
2022/09/29 02:55:45;;;;;;;4.25;1.40;;;;;;;;;;5057106;28;20033;-26
2022/09/29 02:58:11;;;;;;;6.47;2.70;;;;;;;;;;5056727;28;20021;-25
2022/09/29 03:00:37;;;;;;;4.47;1.20;;;;;;;;;;5056428;28;20021;-26
2022/09/29 03:03:04;;;;;;;4.05;1.92;;;;;;;;;;5056132;28;20359;-27
2022/09/29 03:05:30;;;;;;;6.65;1.40;;;;;;;;;;5056366;28;20025;-24
2022/09/29 03:07:56;;;;;;;2.70;1.08;;;;;;;;;;5056596;28;20029;-27
2022/09/29 03:10:22;;;;;;;2.85;1.20;;;;;;;;;;5056292;28;20429;-25
2022/09/29 03:12:48;;;;;;;2.00;1.10;;;;;;;;;;5056205;28;20025;-24
2022/09/29 03:15:14;;;;;;;3.28;1.90;;;;;;;;;;5056383;28;20032;-24
2022/09/29 03:17:41;;;;;;;4.00;1.58;;;;;;;;;;5056660;28;20025;-25
2022/09/29 03:20:07;;;;;;;3.08;1.40;;;;;;;;;;5038596;28;20098;-26
2022/09/29 03:22:34;;;;;;;3.58;1.58;;;;;;;;;;5038389;28;20024;-24
2022/09/29 03:25:00;;;;;;;4.65;1.10;;;;;;;;;;5055997;28;20386;-24
2022/09/29 03:27:26;;;;;;;2.25;1.23;;;;;;;;;;5038373;28;20032;-24
2022/09/29 03:29:52;;;;;;;6.90;1.88;;;;;;;;;;5055883;28;20029;-25
2022/09/29 03:32:18;;;;;;;9.63;3.90;;;;;;;;;;5055542;28;20025;-30
2022/09/29 03:34:44;;;;;;;3.95;1.48;;;;;;;;;;5055449;28;20027;-24
2022/09/29 03:37:11;;;;;;;4.90;1.52;;;;;;;;;;5055721;28;20048;-24
2022/09/29 03:39:37;;;;;;;4.63;1.20;;;;;;;;;;5055668;28;20092;-25
2022/09/29 03:42:03;;;;;;;4.82;1.52;;;;;;;;;;5055770;28;20037;-26
2022/09/29 03:44:29;;;;;;;2.67;1.10;;;;;;;;;;5037982;28;20037;-25
2022/09/29 03:46:55;;;;;;;2.42;0.90;;;;;;;;;;5055763;28;20358;-24
2022/09/29 03:49:21;;;;;;;2.92;1.92;;;;;;;;;;5055777;28;20353;-29
2022/09/29 03:51:48;;;;;;;2.85;1.50;;;;;;;;;;5055227;28;20029;-29
2022/09/29 03:54:14;;;;;;;4.78;1.38;;;;;;;;;;5055661;28;20052;-26
2022/09/29 03:56:40;;;;;;;3.28;1.33;;;;;;;;;;5055562;28;20025;-26
2022/09/29 03:59:08;;;;;;;2.38;1.13;;;;;;;;;;5055274;28;20040;-26
2022/09/29 04:01:34;;;;;;;1.98;1.10;;;;;;;;;;5055190;28;20067;-27
2022/09/29 04:04:01;;;;;;;4.00;1.27;;;;;;;;;;5054938;28;20057;-27
2022/09/29 04:06:27;;;;;;;4.75;1.55;;;;;;;;;;5055071;28;20032;-25
2022/09/29 04:08:53;;;;;;;6.97;2.58;;;;;;;;;;5054927;28;20028;-26
2022/09/29 04:11:19;;;;;;;7.43;1.30;;;;;;;;;;5037422;28;20123;-26
2022/09/29 04:13:46;;;;;;;3.95;1.20;;;;;;;;;;5054693;28;20350;-26
2022/09/29 04:16:12;;;;;;;2.35;1.40;;;;;;;;;;5054510;28;20036;-28
2022/09/29 04:18:38;;;;;;;5.00;1.60;;;;;;;;;;5054590;28;20025;-27
2022/09/29 04:21:05;;;;;;;2.63;1.10;;;;;;;;;;5037006;28;20072;-26
2022/09/29 04:23:31;;;;;;;4.93;1.45;;;;;;;;;;5054497;28;20029;-29
2022/09/29 04:25:58;;;;;;;4.55;1.20;;;;;;;;;;5054375;28;20048;-25
2022/09/29 04:28:25;;;;;;;4.10;1.02;;;;;;;;;;5054339;28;20029;-31
2022/09/29 04:30:51;;;;;;;3.53;1.33;;;;;;;;;;5054238;28;20096;-25
2022/09/29 04:33:18;;;;;;;3.15;1.20;;;;;;;;;;5054410;28;20083;-27
2022/09/29 04:35:45;;;;;;;3.95;1.30;;;;;;;;;;5054462;28;20100;-26
2022/09/29 04:38:11;;;;;;;1.98;1.33;;;;;;;;;;5054432;28;20323;-27
2022/09/29 04:40:38;;;;;;;5.00;1.48;;;;;;;;;;5054144;28;20068;-26
2022/09/29 04:43:04;;;;;;;4.60;1.40;;;;;;;;;;5054292;28;20214;-26
2022/09/29 04:45:31;;;;;;;4.15;1.38;;;;;;;;;;5054285;28;20036;-26
2022/09/29 04:47:57;;;;;;;2.15;0.98;;;;;;;;;;5054313;28;20384;-28
2022/09/29 04:50:24;;;;;;;4.05;1.40;;;;;;;;;;5054096;28;20025;-24
2022/09/29 04:52:50;;;;;;;6.10;1.70;;;;;;;;;;5053743;28;20033;-25
2022/09/29 04:55:16;;;;;;;7.25;1.45;;;;;;;;;;5054260;28;20040;-25
2022/09/29 04:57:43;;;;;;;4.57;1.48;;;;;;;;;;5053980;28;20020;-27
2022/09/29 05:00:10;;;;;;;7.10;1.15;;;;;;;;;;5054016;28;20040;-24
2022/09/29 05:02:36;;;;;;;2.95;1.50;;;;;;;;;;5053628;28;20021;-29
2022/09/29 05:05:02;;;;;;;6.97;1.50;;;;;;;;;;5054148;28;20438;-28
2022/09/29 05:07:29;;;;;;;3.58;1.45;;;;;;;;;;5053722;28;20063;-27
2022/09/29 05:09:55;;;;;;;3.50;1.55;;;;;;;;;;5053843;28;20067;-26
2022/09/29 05:12:21;;;;;;;4.82;1.58;;;;;;;;;;5053648;28;20071;-24
2022/09/29 05:14:47;;;;;;;5.95;1.30;;;;;;;;;;5036130;28;20074;-28
2022/09/29 05:17:13;;;;;;;1.90;1.13;;;;;;;;;;5053638;28;20061;-29
2022/09/29 05:19:39;;;;;;;1.50;1.15;;;;;;;;;;5053995;28;20397;-24
2022/09/29 05:22:06;;;;;;;7.22;1.42;;;;;;;;;;5053924;28;20063;-28
2022/09/29 05:24:32;;;;;;;4.78;1.65;;;;;;;;;;5053727;28;20386;-24
2022/09/29 05:26:58;;;;;;;3.67;1.20;;;;;;;;;;5054017;28;20415;-25
2022/09/29 05:29:24;;;;;;;3.42;1.48;;;;;;;;;;5053615;28;20478;-25
2022/09/29 05:31:50;;;;;;;10.13;1.52;;;;;;;;;;5053439;28;20025;-25
2022/09/29 05:34:17;;;;;;;5.47;2.33;;;;;;;;;;5053783;28;20029;-25
2022/09/29 05:36:43;;;;;;;8.82;1.65;;;;;;;;;;5036061;28;20032;-29
2022/09/29 05:39:10;;;;;;;6.13;1.30;;;;;;;;;;5053584;28;20017;-27
2022/09/29 05:41:36;;;;;;;2.55;1.30;;;;;;;;;;5053713;28;20360;-26
2022/09/29 05:44:03;;;;;;;7.63;1.58;;;;;;;;;;5053598;28;20044;-25
2022/09/29 05:46:29;;;;;;;4.90;1.45;;;;;;;;;;5053467;28;20025;-29
2022/09/29 05:48:57;;;;;;;6.35;2.00;;;;;;;;;;5053483;28;20020;-28
2022/09/29 05:51:25;;;;;;;4.43;1.00;;;;;;;;;;5053347;28;20029;-25
2022/09/29 05:53:52;;;;;;;6.47;1.42;;;;;;;;;;5053190;28;20025;-30
2022/09/29 05:56:25;;;;;;;5.25;1.27;;;;;;;;;;5054467;28;20021;-25
2022/09/29 05:58:52;;;;;;;6.38;1.42;;;;;;;;;;5057242;28;20047;-27
2022/09/29 06:04:00;;;;;;;6.93;1.55;;;;;;;;;;5098070;22;20144;-26
2022/09/29 06:06:28;;;;;;;8.50;1.90;;;;;;;;;;5037418;28;20037;-26
2022/09/29 06:08:56;;;;;;;4.90;1.48;;;;;;;;;;5037059;28;20108;-26
2022/09/29 06:11:23;;;;;;;3.42;1.42;;;;;;;;;;5037016;28;20029;-26
2022/09/29 06:13:51;;;;;;;6.05;1.40;;;;;;;;;;5036751;28;20025;-25
2022/09/29 06:16:18;;;;;;;10.55;1.30;;;;;;;;;;5037246;28;20018;-26
2022/09/29 06:18:45;;;;;;;2.50;1.20;;;;;;;;;;5020082;28;20453;-25
2022/09/29 06:21:12;;;;;;;7.13;1.55;;;;;;;;;;5036805;28;20049;-25
2022/09/29 06:23:39;;;;;;;10.40;2.80;;;;;;;;;;5037260;28;20100;-26
2022/09/29 06:26:09;;;;;;;5.80;1.50;;;;;;;;;;5036678;28;20029;-25
2022/09/29 06:28:36;;;;;;;6.10;1.75;;;;;;;;;;5036652;28;20025;-25
2022/09/29 06:31:04;;;;;;;10.43;1.73;;;;;;;;;;5036801;28;20361;-26
2022/09/29 06:33:30;;;;;;;5.53;1.77;;;;;;;;;;5036530;28;20072;-25
2022/09/29 06:38:42;;;;;;;4.25;1.42;;;;;;;;;;5036834;28;20040;-26
2022/09/29 06:41:09;;;;;;;8.23;2.00;;;;;;;;;;5036777;28;20346;-25
2022/09/29 06:43:35;;;;;;;7.65;1.25;;;;;;;;;;5036385;28;20075;-26
2022/09/29 06:46:01;;;;;;;7.22;1.27;;;;;;;;;;5036166;28;20033;-26
2022/09/29 06:48:28;;;;;;;2.50;1.00;;;;;;;;;;5036622;28;20030;-26
2022/09/29 06:50:55;;;;;;;7.68;1.60;;;;;;;;;;5019013;28;20044;-26
2022/09/29 06:53:22;;;;;;;10.73;1.95;;;;;;;;;;5036654;28;20033;-26
2022/09/29 06:55:52;;;;;;;7.20;1.65;;;;;;;;;;5036990;28;20044;-26
2022/09/29 06:58:18;;;;;;;9.40;1.60;;;;;;;;;;5036813;28;20025;-26
2022/09/29 07:00:45;;;;;;;6.45;1.80;;;;;;;;;;5018597;28;20307;-25
2022/09/29 07:03:11;;;;;;;5.28;2.05;;;;;;;;;;5035778;28;20046;-25
2022/09/29 07:05:37;;;;;;;6.60;3.47;;;;;;;;;;5035970;28;20025;-26
2022/09/29 07:08:03;;;;;;;4.88;1.83;;;;;;;;;;5035196;28;20037;-26
2022/09/29 07:10:29;;;;;;;8.07;1.52;;;;;;;;;;5035868;28;20021;-26
2022/09/29 07:12:56;;;;;;;10.77;2.95;;;;;;;;;;5036184;28;20370;-26
2022/09/29 07:15:30;;;;;;;5.20;1.30;;;;;;;;;;5036558;28;20108;-26
2022/09/29 07:17:56;;;;;;;11.07;1.58;;;;;;;;;;5036029;28;20116;-26
2022/09/29 07:20:23;;;;;;;5.50;1.45;;;;;;;;;;5035923;28;20026;-26
2022/09/29 07:22:49;;;;;;;7.35;1.42;;;;;;;;;;5035959;28;20389;-25
2022/09/29 07:25:15;;;;;;;3.30;1.23;;;;;;;;;;5035874;28;20079;-25
2022/09/29 07:27:42;;;;;;;9.63;1.73;;;;;;;;;;5036075;28;20045;-25
2022/09/29 07:30:08;;;;;;;4.05;1.13;;;;;;;;;;5035834;28;20036;-25
2022/09/29 07:32:34;;;;;;;3.95;1.05;;;;;;;;;;5035527;28;20099;-26
2022/09/29 07:35:00;;;;;;;5.97;1.38;;;;;;;;;;5035405;28;20087;-26
2022/09/29 07:37:28;;;;;;;7.80;2.28;;;;;;;;;;5035658;28;20030;-26
2022/09/29 07:39:54;;;;;;;8.55;1.52;;;;;;;;;;5035238;28;20033;-25
2022/09/29 07:42:20;;;;;;;4.00;1.63;;;;;;;;;;5035356;28;20057;-25
2022/09/29 07:44:47;;;;;;;5.03;1.58;;;;;;;;;;5035623;28;20041;-25
2022/09/29 07:47:13;;;;;;;4.38;1.50;;;;;;;;;;5035332;28;20064;-25
2022/09/29 07:49:43;;;;;;;6.63;1.50;;;;;;;;;;5035022;28;20091;-26
2022/09/29 07:52:10;;;;;;;10.60;2.13;;;;;;;;;;5035045;28;20026;-25
2022/09/29 07:54:36;;;;;;;6.22;1.73;;;;;;;;;;5035198;28;20022;-25
2022/09/29 07:57:02;;;;;;;5.90;1.38;;;;;;;;;;5034983;28;20483;-25
2022/09/29 07:59:29;;;;;;;7.00;1.70;;;;;;;;;;5035401;28;20026;-25
2022/09/29 08:01:55;;;;;;;7.00;1.42;;;;;;;;;;5035283;28;20425;-25
2022/09/29 08:04:22;;;;;;;9.07;1.48;;;;;;;;;;5035225;28;20133;-25
2022/09/29 08:06:48;;;;;;;7.75;1.58;;;;;;;;;;5034902;28;20025;-26
2022/09/29 08:09:14;;;;;;;7.43;1.23;;;;;;;;;;5034673;28;20104;-25
2022/09/29 08:11:41;;;;;;;6.10;1.52;;;;;;;;;;5034537;28;20068;-25
2022/09/29 08:14:08;;;;;;;9.30;1.45;;;;;;;;;;5034729;28;20116;-26
2022/09/29 08:16:34;;;;;;;11.02;2.00;;;;;;;;;;5035189;28;20035;-25
2022/09/29 08:19:01;;;;;;;13.27;2.38;;;;;;;;;;5034729;28;20083;-26
2022/09/29 08:21:28;;;;;;;5.00;1.80;;;;;;;;;;5034803;28;20462;-25
2022/09/29 08:23:55;;;;;;;6.30;1.67;;;;;;;;;;5017059;28;20036;-26
2022/09/29 08:26:22;;;;;;;4.68;1.98;;;;;;;;;;5034492;28;20116;-25
2022/09/29 08:28:48;;;;;;;7.03;1.92;;;;;;;;;;5034634;28;20026;-25
2022/09/29 08:31:19;;;;;;;6.82;1.70;;;;;;;;;;5034610;28;20029;-25
2022/09/29 08:33:45;;;;;;;13.03;2.30;;;;;;;;;;5034849;28;20025;-25
2022/09/29 08:36:15;;;;;;;7.78;1.88;;;;;;;;;;5017876;28;20295;-25
2022/09/29 08:38:45;;;;;;;17.08;1.95;;;;;;;;;;5034371;28;20021;-25
2022/09/29 08:41:31;;;;;;;12.32;2.05;;;;;;;;;;5034632;28;20044;-25
2022/09/29 08:44:00;;;;;;;9.38;1.45;;;;;;;;;;5034409;28;20056;-25
2022/09/29 08:46:29;;;;;;;13.65;1.90;;;;;;;;;;5034227;28;20025;-25
2022/09/29 08:48:56;;;;;;;11.18;2.17;;;;;;;;;;5034089;28;20495;-24
2022/09/29 08:51:26;;;;;;;23.75;2.10;;;;;;;;;;5016651;28;20036;-25
2022/09/29 08:53:56;;;;;;;26.42;3.40;;;;;;;;;;5033861;28;20037;-25
2022/09/29 08:56:23;;;;;;;10.38;1.98;;;;;;;;;;5034038;28;20037;-26
2022/09/29 08:58:49;;;;;;;17.88;1.85;;;;;;;;;;5016553;28;20496;-25
2022/09/29 09:01:34;;;;;;;10.70;2.20;;;;;;;;;;5034301;28;20104;-26
2022/09/29 09:04:00;;;;;;;39.78;3.33;;;;;;;;;;5033849;28;20442;-26
2022/09/29 09:06:51;;;;;;;20.02;3.15;;;;;;;;;;5034607;28;20454;-25
2022/09/29 09:09:38;;;;;;;17.65;2.55;;;;;;;;;;5034420;28;20438;-25
2022/09/29 09:12:06;;;;;;;14.82;2.47;;;;;;;;;;5033843;28;20099;-25
2022/09/29 09:14:51;;;;;;;18.70;2.60;;;;;;;;;;5034196;28;20100;-26
2022/09/29 09:17:17;;;;;;;21.92;3.45;;;;;;;;;;5033892;28;20032;-25
2022/09/29 09:19:43;;;;;;;26.77;3.10;;;;;;;;;;5033810;28;20175;-26
2022/09/29 09:22:19;;;;;;;22.45;3.22;;;;;;;;;;5033926;28;20155;-25
2022/09/29 09:24:54;;;;;;;25.35;4.05;;;;;;;;;;5033640;28;20040;-26
2022/09/29 09:27:23;;;;;;;29.20;3.28;;;;;;;;;;5034204;28;20033;-26
2022/09/29 09:29:50;;;;;;;27.40;2.63;;;;;;;;;;5033949;28;20025;-26
2022/09/29 09:32:22;;;;;;;14.85;2.58;;;;;;;;;;5036106;28;20037;-26
2022/09/29 09:35:01;;;;;;;15.90;2.83;;;;;;;;;;5037862;28;20464;-26
2022/09/29 09:37:32;;;;;;;16.88;2.63;;;;;;;;;;5037523;28;20488;-26
2022/09/29 09:40:03;;;;;;;13.38;2.63;;;;;;;;;;5020195;28;20025;-26
2022/09/29 09:42:37;;;;;;;15.95;2.42;;;;;;;;;;5037828;28;20044;-26
2022/09/29 09:45:08;;;;;;;9.20;2.50;;;;;;;;;;5020193;28;20065;-26
2022/09/29 09:47:37;;;;;;;14.68;2.90;;;;;;;;;;5038790;28;20437;-25
2022/09/29 09:50:16;;;;;;;16.30;2.50;;;;;;;;;;5037618;28;20087;-26
2022/09/29 09:52:52;;;;;;;8.18;2.65;;;;;;;;;;5020560;28;20219;-26
2022/09/29 09:55:19;;;;;;;13.13;2.35;;;;;;;;;;5037445;28;20449;-26
2022/09/29 09:57:46;;;;;;;15.02;2.35;;;;;;;;;;5037494;28;20039;-25
2022/09/29 10:00:38;;;;;;;14.75;3.50;;;;;;;;;;5037232;28;20072;-26
2022/09/29 10:03:05;;;;;;;10.13;2.15;;;;;;;;;;5032517;28;20045;-25
2022/09/29 10:05:38;;;;;;;16.65;2.58;;;;;;;;;;5036943;28;20026;-26
2022/09/29 10:08:11;;;;;;;15.90;2.30;;;;;;;;;;5037351;28;20060;-26
2022/09/29 10:10:40;;;;;;;14.82;2.30;;;;;;;;;;5038042;28;20449;-25
2022/09/29 10:13:09;;;;;;;15.13;2.80;;;;;;;;;;5019920;28;20025;-25
2022/09/29 10:15:52;;;;;;;10.10;2.17;;;;;;;;;;5037807;28;20327;-26
2022/09/29 10:18:23;;;;;;;14.15;3.22;;;;;;;;;;5037716;28;20026;-25
2022/09/29 10:20:49;;;;;;;15.18;2.80;;;;;;;;;;5037948;28;20049;-32
2022/09/29 10:23:26;;;;;;;12.48;1.98;;;;;;;;;;5037835;28;20041;-25
2022/09/29 10:25:55;;;;;;;16.25;2.42;;;;;;;;;;5037196;28;20033;-24
2022/09/29 10:28:22;;;;;;;12.13;2.08;;;;;;;;;;5036900;28;20026;-26
2022/09/29 10:30:48;;;;;;;12.32;2.60;;;;;;;;;;5036908;28;20040;-32
2022/09/29 10:33:16;;;;;;;10.68;2.28;;;;;;;;;;5036658;28;20463;-26
2022/09/29 10:35:44;;;;;;;18.13;2.55;;;;;;;;;;5036491;28;20022;-26
2022/09/29 10:38:18;;;;;;;16.58;2.35;;;;;;;;;;5036355;28;20026;-26
2022/09/29 10:40:56;;;;;;;14.93;2.47;;;;;;;;;;5036307;28;20041;-25
2022/09/29 10:43:24;;;;;;;19.75;2.83;;;;;;;;;;5036252;28;20036;-26
2022/09/29 10:45:52;;;;;;;7.32;2.38;;;;;;;;;;5036352;28;20029;-25
2022/09/29 10:48:18;;;;;;;15.95;2.53;;;;;;;;;;5036873;28;20438;-25
2022/09/29 10:50:50;;;;;;;16.02;4.13;;;;;;;;;;5036453;28;20354;-25
2022/09/29 10:53:15;;;;;;;;;;;;;;;;;;5036682;28;20362;-25
2022/09/29 10:55:50;;;;;;;11.02;2.53;;;;;;;;;;5036139;28;19905;-25
2022/09/29 10:58:25;;;;;;;11.50;2.28;;;;;;;;;;5036426;28;20045;-26
2022/09/29 11:01:02;;;;;;;15.63;2.65;;;;;;;;;;5036387;28;20029;-26
2022/09/29 11:03:28;;;;;;;10.00;2.88;;;;;;;;;;5035847;28;20071;-25
2022/09/29 11:06:06;;;;;;;16.88;2.30;;;;;;;;;;5036477;28;20029;-24
2022/09/29 11:08:32;;;;;;;14.90;2.70;;;;;;;;;;5035938;28;20458;-25
2022/09/29 11:11:22;;;;;;;11.90;1.95;;;;;;;;;;5035887;28;20489;-26
2022/09/29 11:13:48;;;;;;;11.30;2.55;;;;;;;;;;5022982;28;20136;-26
2022/09/29 11:16:19;;;;;;;12.48;3.17;;;;;;;;;;5018367;28;20030;-26
2022/09/29 11:18:47;;;;;;;16.95;2.55;;;;;;;;;;5018209;28;20026;-26
2022/09/29 11:21:28;;;;;;;13.60;3.00;;;;;;;;;;5035989;28;20405;-26
2022/09/29 11:23:58;;;;;;;15.10;3.42;;;;;;;;;;5035596;28;20037;-25
2022/09/29 11:26:31;;;;;;;14.48;2.40;;;;;;;;;;5018307;28;20037;-26
2022/09/29 11:29:08;;;;;;;20.15;2.95;;;;;;;;;;5017989;28;20045;-25
2022/09/29 11:31:34;;;;;;;22.98;3.80;;;;;;;;;;5035770;28;20060;-25
2022/09/29 11:34:07;;;;;;;11.00;2.25;;;;;;;;;;5017757;28;20116;-26
2022/09/29 11:36:52;;;;;;;15.25;2.35;;;;;;;;;;5035643;28;20037;-25
2022/09/29 11:39:21;;;;;;;9.95;1.88;;;;;;;;;;5017938;28;20021;-26
2022/09/29 11:42:07;;;;;;;12.13;2.72;;;;;;;;;;5035227;28;20030;-26
2022/09/29 11:45:07;;;;;;;10.20;2.45;;;;;;;;;;5036008;28;20462;-25
2022/09/29 11:47:51;;;;;;;16.25;3.53;;;;;;;;;;4982632;28;20037;-25
2022/09/29 11:50:17;;;;;;;11.60;2.83;;;;;;;;;;5035909;28;20430;-25
2022/09/29 11:53:10;;;;;;;14.15;2.33;;;;;;;;;;5035035;28;20033;-25
2022/09/29 11:55:54;;;;;;;12.02;2.72;;;;;;;;;;4998324;28;20037;-26
2022/09/29 11:58:21;;;;;;;18.75;3.20;;;;;;;;;;5017711;28;20345;-26
2022/09/29 12:01:05;;;;;;;14.10;2.28;;;;;;;;;;5035446;28;20116;-26
2022/09/29 12:03:41;;;;;;;12.93;2.28;;;;;;;;;;5035417;28;20045;-25
2022/09/29 12:06:26;;;;;;;11.18;3.03;;;;;;;;;;5035590;28;20040;-27
2022/09/29 12:09:10;;;;;;;12.07;1.90;;;;;;;;;;5035429;28;20049;-25
2022/09/29 12:11:49;;;;;;;17.58;3.97;;;;;;;;;;5035165;28;20041;-25
2022/09/29 12:14:19;;;;;;;15.30;2.92;;;;;;;;;;5017632;28;20109;-25
2022/09/29 12:17:09;;;;;;;24.55;3.22;;;;;;;;;;5002298;28;20080;-25
2022/09/29 12:19:38;;;;;;;16.10;2.08;;;;;;;;;;5022401;28;20037;-25
2022/09/29 12:22:07;;;;;;;16.17;3.10;;;;;;;;;;5035029;28;20091;-26
2022/09/29 12:24:36;;;;;;;15.68;2.60;;;;;;;;;;5035713;28;20095;-26
2022/09/29 12:27:05;;;;;;;15.75;2.85;;;;;;;;;;5035885;28;20330;-26
2022/09/29 12:29:34;;;;;;;14.95;2.28;;;;;;;;;;5034889;28;20324;-26
2022/09/29 12:32:05;;;;;;;14.02;2.60;;;;;;;;;;5016941;28;20300;-26
2022/09/29 12:34:40;;;;;;;9.48;2.20;;;;;;;;;;5034409;28;20033;-26
2022/09/29 12:37:15;;;;;;;11.00;2.60;;;;;;;;;;5034925;28;20029;-26
2022/09/29 12:39:50;;;;;;;9.73;2.92;;;;;;;;;;5034234;28;20040;-26
2022/09/29 12:42:22;;;;;;;11.25;2.80;;;;;;;;;;5034210;28;20060;-24
2022/09/29 12:44:49;;;;;;;;;;;;;;;;;;5035145;28;20075;-25
2022/09/29 12:47:22;;;;;;;15.70;2.47;;;;;;;;;;5034215;28;20352;-26
2022/09/29 12:49:51;;;;;;;20.08;2.35;;;;;;;;;;5034708;28;20119;-26
2022/09/29 12:52:20;;;;;;;5.70;1.58;;;;;;;;;;5034253;28;20058;-26
2022/09/29 12:54:50;;;;;;;18.10;2.40;;;;;;;;;;5034193;28;20025;-26
2022/09/29 12:57:39;;;;;;;19.17;3.00;;;;;;;;;;5034867;28;20436;-26
2022/09/29 13:00:11;;;;;;;14.13;2.20;;;;;;;;;;5035248;28;20355;-25
2022/09/29 13:02:54;;;;;;;16.85;2.20;;;;;;;;;;5016637;28;20084;-25
2022/09/29 13:05:32;;;;;;;10.80;1.98;;;;;;;;;;5035411;28;20035;-26
2022/09/29 13:08:12;;;;;;;15.02;2.03;;;;;;;;;;5020661;28;20033;-26
2022/09/29 13:10:58;;;;;;;13.50;2.25;;;;;;;;;;5038515;28;20089;-26
2022/09/29 13:13:27;;;;;;;14.48;3.33;;;;;;;;;;5038303;28;20466;-25
2022/09/29 13:16:03;;;;;;;15.65;2.38;;;;;;;;;;5038819;28;20021;-25
2022/09/29 13:18:29;;;;;;;15.55;2.40;;;;;;;;;;5021019;28;20017;-25
2022/09/29 13:20:55;;;;;;;7.93;2.05;;;;;;;;;;5038406;28;20040;-25
2022/09/29 13:23:24;;;;;;;13.65;2.40;;;;;;;;;;5038347;28;20398;-25
2022/09/29 13:26:09;;;;;;;10.07;3.47;;;;;;;;;;5038450;28;20033;-25
2022/09/29 13:28:38;;;;;;;29.48;3.13;;;;;;;;;;5038618;28;20025;-26
2022/09/29 13:31:07;;;;;;;12.88;2.25;;;;;;;;;;5038403;28;20033;-27
2022/09/29 13:33:33;;;;;;;21.63;3.22;;;;;;;;;;5038086;28;20033;-26
2022/09/29 13:36:00;;;;;;;15.57;2.72;;;;;;;;;;5038507;28;20033;-26
2022/09/29 13:38:27;;;;;;;15.63;2.92;;;;;;;;;;5038226;28;20037;-26
2022/09/29 13:41:08;;;;;;;9.93;2.63;;;;;;;;;;5038345;28;20021;-25
2022/09/29 13:43:58;;;;;;;11.18;1.90;;;;;;;;;;5020464;28;20465;-25
2022/09/29 13:46:30;;;;;;;6.63;2.25;;;;;;;;;;4976259;28;20465;-26
2022/09/29 13:49:16;;;;;;;18.60;3.70;;;;;;;;;;5037827;28;20026;-28
2022/09/29 13:51:44;;;;;;;14.35;2.58;;;;;;;;;;5037700;28;20040;-26
2022/09/29 13:54:25;;;;;;;19.20;2.40;;;;;;;;;;5037634;28;20030;-25
2022/09/29 13:56:59;;;;;;;13.30;2.15;;;;;;;;;;5037690;28;20095;-24
2022/09/29 13:59:27;;;;;;;12.77;3.33;;;;;;;;;;5037798;28;20101;-25
2022/09/29 14:01:54;;;;;;;13.07;3.22;;;;;;;;;;5020123;28;20033;-25
2022/09/29 14:04:31;;;;;;;15.05;2.35;;;;;;;;;;5038739;28;20064;-25
2022/09/29 14:06:58;;;;;;;17.95;2.25;;;;;;;;;;5038117;28;20065;-25
2022/09/29 14:09:32;;;;;;;17.60;2.58;;;;;;;;;;5037499;28;20029;-25
2022/09/29 14:12:01;;;;;;;12.13;1.63;;;;;;;;;;5037699;28;20473;-27
2022/09/29 14:14:33;;;;;;;13.52;2.58;;;;;;;;;;5037403;28;20041;-25
2022/09/29 14:17:10;;;;;;;6.20;1.90;;;;;;;;;;5036454;28;20041;-25
2022/09/29 14:19:42;;;;;;;9.45;2.08;;;;;;;;;;5037495;28;20025;-25
2022/09/29 14:22:27;;;;;;;16.05;3.08;;;;;;;;;;5037470;28;20037;-25
2022/09/29 14:24:54;;;;;;;10.38;1.80;;;;;;;;;;5037266;28;20091;-25
2022/09/29 14:27:50;;;;;;;12.85;2.22;;;;;;;;;;5037283;28;20044;-30
2022/09/29 14:30:37;;;;;;;5.75;1.63;;;;;;;;;;5035717;28;20037;-25
2022/09/29 14:33:12;;;;;;;13.25;2.22;;;;;;;;;;5037072;28;20044;-26
2022/09/29 14:35:48;;;;;;;16.60;2.75;;;;;;;;;;5020397;28;20335;-26
2022/09/29 14:38:14;;;;;;;9.48;2.08;;;;;;;;;;5037721;28;20028;-25
2022/09/29 14:40:54;;;;;;;19.33;2.03;;;;;;;;;;5037286;28;20090;-26
2022/09/29 14:43:20;;;;;;;8.77;2.67;;;;;;;;;;5037462;28;20081;-26
2022/09/29 14:51:56;;;;;;;18.52;2.75;;;;;;;;;;5036712;28;20071;-25
2022/09/29 14:54:28;;;;;;;5.57;2.05;;;;;;;;;;5036571;28;20044;-25
2022/09/29 14:57:04;;;;;;;9.90;2.10;;;;;;;;;;5037597;28;20025;-25
2022/09/29 14:59:47;;;;;;;12.82;2.08;;;;;;;;;;5019077;28;20098;-25
2022/09/29 15:02:27;;;;;;;12.73;2.72;;;;;;;;;;5037466;28;20485;-25
2022/09/29 15:04:54;;;;;;;9.20;1.98;;;;;;;;;;5036713;28;20034;-25
2022/09/29 15:07:22;;;;;;;10.02;1.90;;;;;;;;;;5036991;28;20025;-26